Terminal Aerodrome Forecast
Issued by NWS Los Angeles, CA

Home | Current Version | Previous Version | Text Only | Print | Product List | Glossary On
Versions: 1 2 3 4 5 6 7 8 9 10 11 12 13 14 15 16 17 18 19 20 21 22 23 24 25 26
000
FTUS46 KLOX 290709 AAA
TAFSMX
TAF AMD
KSMX 290709Z 2907/3006 VRB03KT 5SM BR OVC003
     FM291100 VRB03KT 1/2SM FG VV001
     FM291500 VRB03KT 3SM BR BKN004
     FM291700 30006KT P6SM SKC
     FM292000 30012KT P6SM SKC
     FM300300 30006KT 5SM BR BKN005=

USA.gov is the U.S. government's official web portal to all federal, state and local government web resources and services.